createdAt,value
2022-08-12T00:00:00.488Z,95661.69
2022-08-12T00:03:02.257Z,95658.50
2022-08-12T00:06:05.305Z,95650.72
2022-08-12T00:09:07.540Z,95659.63
2022-08-12T00:12:09.197Z,95658.09
2022-08-12T00:15:14.960Z,95650.94
2022-08-12T00:18:16.598Z,95657.00
2022-08-12T00:21:18.881Z,95648.97
2022-08-12T00:24:21.433Z,95650.09
2022-08-12T00:27:26.220Z,95652.25
2022-08-12T00:30:46.315Z,95655.78
2022-08-12T00:33:51.749Z,95655.66
2022-08-12T00:36:57.451Z,95660.03
2022-08-12T00:40:04.721Z,95655.13
2022-08-12T00:43:09.807Z,95654.88
2022-08-12T00:46:12.849Z,95653.31
2022-08-12T00:49:15.051Z,95645.31
2022-08-12T00:52:17.165Z,95648.75
2022-08-12T00:55:19.206Z,95653.03
2022-08-12T00:58:23.632Z,95653.34
2022-08-12T01:01:26.786Z,95649.47
2022-08-12T01:04:29.374Z,95641.72
2022-08-12T01:07:33.399Z,95644.88
2022-08-12T01:10:36.637Z,95640.84
2022-08-12T01:13:39.963Z,95643.97
2022-08-12T01:16:43.393Z,95644.22
2022-08-12T01:19:45.652Z,95637.13
2022-08-12T01:22:55.685Z,95630.03
2022-08-12T01:25:59.651Z,95637.78
2022-08-12T01:29:01.358Z,95633.22
2022-08-12T01:32:04.573Z,95631.09
2022-08-12T01:35:08.032Z,95639.47
2022-08-12T01:38:11.271Z,95640.06
2022-08-12T01:41:16.454Z,95629.72
2022-08-12T01:44:20.530Z,95631.34
2022-08-12T01:47:33.179Z,95632.63
2022-08-12T01:50:47.191Z,95629.03
2022-08-12T01:53:55.130Z,95613.56
2022-08-12T01:57:01.781Z,95614.97
2022-08-12T02:00:06.547Z,95611.72
2022-08-12T02:03:16.758Z,95609.97
2022-08-12T02:06:22.416Z,95600.59
2022-08-12T02:09:28.662Z,95606.88
2022-08-12T02:12:39.177Z,95598.75
2022-08-12T02:15:45.326Z,95593.88
2022-08-12T02:18:49.094Z,95596.25
2022-08-12T02:21:55.379Z,95592.41
2022-08-12T02:25:01.120Z,95588.69
2022-08-12T02:28:05.976Z,95590.09
2022-08-12T02:31:10.125Z,95590.09
2022-08-12T02:34:12.713Z,95573.38
2022-08-12T02:37:14.717Z,95576.09
2022-08-12T02:40:17.321Z,95571.94
2022-08-12T02:43:26.325Z,95566.97
2022-08-12T02:46:29.257Z,95562.72
2022-08-12T02:49:32.556Z,95562.59
2022-08-12T02:52:34.862Z,95569.34
2022-08-12T02:55:36.582Z,95562.78
2022-08-12T02:58:41.246Z,95561.50
2022-08-12T03:01:48.474Z,95570.13
2022-08-12T03:04:53.035Z,95574.72
2022-08-12T03:07:59.239Z,95573.44
2022-08-12T03:11:03.886Z,95571.31
2022-08-12T03:14:10.075Z,95566.69
2022-08-12T03:17:15.797Z,95569.34
2022-08-12T03:20:19.121Z,95571.31
2022-08-12T03:23:29.147Z,95571.69
2022-08-12T03:26:34.555Z,95569.03
2022-08-12T03:29:50.075Z,95570.22
2022-08-12T03:32:54.209Z,95560.34
2022-08-12T03:35:58.137Z,95564.94
2022-08-12T03:39:00.946Z,95566.59
2022-08-12T03:42:08.555Z,95562.75
2022-08-12T03:45:22.072Z,95563.34
2022-08-12T03:48:24.768Z,95556.47
2022-08-12T03:51:26.889Z,95555.34
2022-08-12T03:54:28.587Z,95545.47
2022-08-12T03:57:30.244Z,95554.22
2022-08-12T04:00:35.040Z,95558.34
2022-08-12T04:03:37.278Z,95570.41
2022-08-12T04:06:41.980Z,95564.66
2022-08-12T04:09:44.293Z,95568.38
2022-08-12T04:12:55.557Z,95572.03
2022-08-12T04:16:01.326Z,95572.44
2022-08-12T04:19:03.113Z,95567.06
2022-08-12T04:22:04.905Z,95573.56
2022-08-12T04:25:08.707Z,95571.91
2022-08-12T04:28:13.780Z,95570.16
2022-08-12T04:31:17.356Z,95569.78
2022-08-12T04:34:18.997Z,95577.22
2022-08-12T04:37:20.721Z,95572.31
2022-08-12T04:40:28.276Z,95579.53
2022-08-12T04:44:00.077Z,95565.66
2022-08-12T04:46:53.770Z,95584.75
2022-08-12T04:49:55.383Z,95570.56
2022-08-12T04:52:57.296Z,95573.22
2022-08-12T04:55:59.185Z,95565.28
2022-08-12T04:59:00.946Z,95567.91
2022-08-12T05:02:04.219Z,95562.97
2022-08-12T05:05:16.129Z,95580.31
2022-08-12T05:08:17.898Z,95584.19
2022-08-12T05:11:21.228Z,95594.63
2022-08-12T05:14:23.020Z,95592.03
2022-08-12T05:17:27.960Z,95601.91
2022-08-12T05:20:30.076Z,95602.53
2022-08-12T05:23:31.793Z,95592.88
2022-08-12T05:26:33.484Z,95593.50
2022-08-12T05:30:07.559Z,95594.69
2022-08-12T05:32:59.999Z,95606.44
2022-08-12T05:36:02.237Z,95598.06
2022-08-12T05:39:04.069Z,95610.50
2022-08-12T05:42:05.940Z,95606.25
2022-08-12T05:45:08.395Z,95613.72
2022-08-12T05:48:11.402Z,95606.31
2022-08-12T05:51:13.075Z,95618.00
2022-08-12T05:54:14.751Z,95607.34
2022-08-12T05:57:16.456Z,95612.16
2022-08-12T06:00:18.250Z,95605.69
2022-08-12T06:03:21.417Z,95602.44
2022-08-12T06:06:27.404Z,95609.78
2022-08-12T06:09:29.391Z,95611.59
2022-08-12T06:12:31.126Z,95617.91
2022-08-12T06:15:33.530Z,95619.78
2022-08-12T06:18:37.873Z,95619.09
2022-08-12T06:21:39.619Z,95616.72
2022-08-12T06:24:41.807Z,95630.50
2022-08-12T06:28:05.905Z,95628.38
2022-08-12T06:35:25.781Z,95628.81
2022-08-12T06:37:56.637Z,95638.53
2022-08-12T06:41:00.593Z,95643.63
2022-08-12T06:44:04.781Z,95642.94
2022-08-12T06:47:09.409Z,95647.72
2022-08-12T06:50:13.041Z,95644.09
2022-08-12T06:53:14.710Z,95636.56
2022-08-12T06:56:16.381Z,95641.72
2022-08-12T06:59:18.125Z,95648.75
2022-08-12T07:02:19.986Z,95646.09
2022-08-12T07:05:23.569Z,95646.63
2022-08-12T07:08:26.114Z,95656.03
2022-08-12T07:11:28.247Z,95653.28
2022-08-12T07:14:29.931Z,95655.09
2022-08-12T07:17:31.561Z,95649.88
2022-08-12T07:20:51.744Z,95649.88
2022-08-12T07:23:54.562Z,95652.44
2022-08-12T07:26:56.387Z,95651.88
2022-08-12T07:30:04.164Z,95653.19
2022-08-12T07:33:08.127Z,95651.56
2022-08-12T07:36:12.052Z,95648.28
2022-08-12T07:39:13.729Z,95649.72
2022-08-12T07:42:17.854Z,95647.84
2022-08-12T07:45:20.138Z,95654.59
2022-08-12T07:48:22.669Z,95649.97
2022-08-12T07:51:25.975Z,95648.56
2022-08-12T07:54:27.754Z,95654.75
2022-08-12T07:57:29.708Z,95652.22
2022-08-12T08:00:32.948Z,95648.81
2022-08-12T08:03:34.806Z,95653.94
2022-08-12T08:06:50.655Z,95642.53
2022-08-12T08:09:58.511Z,95646.69
2022-08-12T08:13:01.187Z,95641.44
2022-08-12T08:16:04.067Z,95653.16
2022-08-12T08:19:06.357Z,95648.25
2022-08-12T08:22:09.382Z,95649.84
2022-08-12T08:25:20.485Z,95650.19
2022-08-12T08:28:33.248Z,95649.28
2022-08-12T08:31:34.921Z,95649.97
2022-08-12T08:34:54.540Z,95653.47
2022-08-12T08:38:06.405Z,95650.81
2022-08-12T08:41:08.134Z,95649.00
2022-08-12T08:44:09.878Z,95654.19
2022-08-12T08:47:12.520Z,95654.44
2022-08-12T08:50:14.743Z,95647.31
2022-08-12T08:53:17.841Z,95653.25
2022-08-12T08:56:19.666Z,95652.59
2022-08-12T08:59:21.366Z,95649.41
2022-08-12T09:02:23.084Z,95652.81
2022-08-12T09:05:25.838Z,95661.47
2022-08-12T09:08:29.192Z,95661.69
2022-08-12T09:12:06.450Z,95660.69
2022-08-12T09:14:53.085Z,95660.91
2022-08-12T09:17:55.736Z,95663.13
2022-08-12T09:20:59.079Z,95658.81
2022-08-12T09:24:06.020Z,95652.88
2022-08-12T09:27:12.184Z,95647.09
2022-08-12T09:30:14.514Z,95653.97
2022-08-12T09:33:19.405Z,95653.47
2022-08-12T09:37:00.585Z,95642.28
2022-08-12T09:40:55.569Z,95635.69
2022-08-12T09:43:24.928Z,95644.47
2022-08-12T09:46:27.164Z,95629.88
2022-08-12T09:49:28.898Z,95632.22
2022-08-12T09:52:31.765Z,95628.31
2022-08-12T09:56:05.748Z,95635.63
2022-08-12T09:59:01.315Z,95625.28
2022-08-12T10:02:52.819Z,95625.25
2022-08-12T10:06:27.638Z,95618.91
2022-08-12T10:08:52.221Z,95618.97
2022-08-12T10:12:12.038Z,95612.78
2022-08-12T10:15:15.093Z,95610.56
2022-08-12T10:18:36.134Z,95606.28
2022-08-12T10:21:38.243Z,95602.84
2022-08-12T10:24:39.869Z,95604.44
2022-08-12T10:28:04.768Z,95604.00
2022-08-12T10:31:05.478Z,95598.63
2022-08-12T10:34:14.928Z,95593.16
2022-08-12T10:38:33.281Z,95588.91
2022-08-12T10:40:47.437Z,95587.09
2022-08-12T10:43:56.033Z,95594.25
2022-08-12T10:46:58.320Z,95590.41
2022-08-12T10:50:28.549Z,95584.16
2022-08-12T10:53:44.054Z,95577.47
2022-08-12T10:56:45.250Z,95585.19
2022-08-12T11:00:31.892Z,95573.47
2022-08-12T11:04:26.256Z,95570.50
2022-08-12T11:07:07.467Z,95571.78
2022-08-12T11:09:59.831Z,95566.88
2022-08-12T11:13:04.055Z,95563.53
2022-08-12T11:16:22.660Z,95566.56
2022-08-12T11:19:25.174Z,95571.50
2022-08-12T11:22:26.869Z,95568.16
2022-08-12T11:25:55.422Z,95564.13
2022-08-12T11:28:59.128Z,95563.53
2022-08-12T11:32:08.722Z,95556.06
2022-08-12T11:35:11.478Z,95557.59
2022-08-12T11:38:13.548Z,95555.38
2022-08-12T11:41:31.305Z,95554.28
2022-08-12T11:44:37.257Z,95555.59
2022-08-12T11:47:46.147Z,95541.59
2022-08-12T11:50:48.115Z,95544.41
2022-08-12T11:53:56.947Z,95547.84
2022-08-12T11:57:02.985Z,95546.06
2022-08-12T12:02:01.888Z,95550.22
2022-08-12T12:03:46.737Z,95543.81
2022-08-12T12:06:53.080Z,95534.44
2022-08-12T12:09:55.724Z,95535.97
2022-08-12T12:12:57.679Z,95545.56
2022-08-12T12:16:00.251Z,95542.53
2022-08-12T12:19:03.333Z,95544.16
2022-08-12T12:22:05.035Z,95540.19
2022-08-12T12:25:12.509Z,95539.03
2022-08-12T12:28:36.529Z,95535.38
2022-08-12T12:32:09.940Z,95545.56
2022-08-12T12:35:13.784Z,95535.53
2022-08-12T12:38:25.389Z,95545.84
2022-08-12T12:42:43.352Z,95542.78
2022-08-12T12:44:50.918Z,95525.81
2022-08-12T12:47:56.363Z,95540.72
2022-08-12T12:50:59.690Z,95545.19
2022-08-12T12:54:08.536Z,95535.97
2022-08-12T12:57:11.246Z,95539.06
2022-08-12T13:00:15.398Z,95548.28
2022-08-12T13:03:19.098Z,95548.22
2022-08-12T13:06:22.940Z,95557.69
2022-08-12T13:09:36.226Z,95554.16
2022-08-12T13:12:38.366Z,95557.03
2022-08-12T13:15:45.461Z,95554.94
2022-08-12T13:18:49.688Z,95555.38
2022-08-12T13:21:54.189Z,95550.06
2022-08-12T13:24:58.178Z,95549.97
2022-08-12T13:28:00.695Z,95554.81
2022-08-12T13:31:03.870Z,95557.44
2022-08-12T13:34:32.053Z,95552.41
2022-08-12T13:37:28.651Z,95545.25
2022-08-12T13:40:46.353Z,95539.75
2022-08-12T13:43:48.073Z,95540.13
2022-08-12T13:46:58.990Z,95536.41
2022-08-12T13:50:02.151Z,95536.75
2022-08-12T13:53:24.929Z,95539.00
2022-08-12T13:56:35.115Z,95536.88
2022-08-12T13:59:48.840Z,95545.56
2022-08-12T14:02:57.532Z,95550.41
2022-08-12T14:06:01.027Z,95559.88
2022-08-12T14:09:17.391Z,95554.09
2022-08-12T14:12:19.766Z,95564.22
2022-08-12T14:15:35.112Z,95560.03
2022-08-12T14:18:39.071Z,95558.94
2022-08-12T14:22:01.277Z,95563.84
2022-08-12T14:25:04.273Z,95560.16
2022-08-12T14:28:10.054Z,95557.84
2022-08-12T14:31:16.549Z,95555.66
2022-08-12T14:34:20.570Z,95549.19
2022-08-12T14:37:56.473Z,95557.41
2022-08-12T14:40:53.877Z,95555.66
2022-08-12T14:44:04.944Z,95554.84
2022-08-12T14:47:17.442Z,95561.75
2022-08-12T14:50:58.836Z,95562.47
2022-08-12T14:57:20.030Z,95556.97
2022-08-12T15:00:28.623Z,95555.38
2022-08-12T15:03:52.682Z,95544.34
2022-08-12T15:06:53.335Z,95544.03
2022-08-12T15:09:55.042Z,95547.25
2022-08-12T15:12:58.684Z,95542.19
2022-08-12T15:16:01.347Z,95540.84
2022-08-12T15:19:22.862Z,95545.88
2022-08-12T15:22:37.480Z,95533.47
2022-08-12T15:25:47.561Z,95537.78
2022-08-12T15:28:53.900Z,95534.34
2022-08-12T15:31:59.810Z,95536.94
2022-08-12T15:35:11.897Z,95534.25
2022-08-12T15:38:17.373Z,95530.16
2022-08-12T15:41:21.087Z,95538.44
2022-08-12T15:44:38.805Z,95532.63
2022-08-12T15:47:49.626Z,95525.91
2022-08-12T15:50:52.841Z,95530.13
2022-08-12T15:53:56.886Z,95529.09
2022-08-12T15:56:59.690Z,95535.00
2022-08-12T16:00:07.505Z,95530.69
2022-08-12T16:03:14.108Z,95524.16
2022-08-12T16:06:35.601Z,95536.25
2022-08-12T16:09:56.781Z,95527.50
2022-08-12T16:13:12.547Z,95527.22
2022-08-12T16:16:23.378Z,95529.69
2022-08-12T16:20:04.003Z,95530.28
2022-08-12T16:22:51.496Z,95534.53
2022-08-12T16:26:05.787Z,95533.88
2022-08-12T16:29:15.422Z,95533.25
2022-08-12T16:32:19.450Z,95531.72
2022-08-12T16:35:21.222Z,95542.13
2022-08-12T16:38:33.311Z,95544.59
2022-08-12T16:41:39.405Z,95544.22
2022-08-12T16:44:46.052Z,95541.44
2022-08-12T16:47:58.906Z,95539.38
2022-08-12T16:51:03.352Z,95542.28
2022-08-12T16:54:05.017Z,95539.44
2022-08-12T16:57:14.570Z,95539.91
2022-08-12T17:00:18.578Z,95533.13
2022-08-12T17:03:28.632Z,95533.03
2022-08-12T17:06:30.730Z,95532.59
2022-08-12T17:09:34.258Z,95529.91
2022-08-12T17:12:42.285Z,95530.44
2022-08-12T17:15:57.790Z,95533.19
2022-08-12T17:19:09.262Z,95530.38
2022-08-12T17:22:11.809Z,95521.03
2022-08-12T17:25:14.758Z,95519.41
2022-08-12T17:28:17.467Z,95523.75
2022-08-12T17:31:19.237Z,95520.53
2022-08-12T17:34:42.856Z,95520.53
2022-08-12T17:37:44.539Z,95523.28
2022-08-12T17:40:46.558Z,95524.31
2022-08-12T17:43:55.735Z,95525.13
2022-08-12T17:46:59.855Z,95527.00
2022-08-12T17:50:06.019Z,95517.81
2022-08-12T17:53:10.824Z,95523.06
2022-08-12T17:56:13.076Z,95524.06
2022-08-12T17:59:48.059Z,95522.75
2022-08-12T18:02:41.461Z,95530.19
2022-08-12T18:05:59.830Z,95530.34
2022-08-12T18:09:08.825Z,95536.31
2022-08-12T18:12:11.822Z,95539.03
2022-08-12T18:15:26.930Z,95541.66
2022-08-12T18:18:36.402Z,95540.41
2022-08-12T18:22:01.241Z,95534.31
2022-08-12T18:25:04.031Z,95536.91
2022-08-12T18:28:15.847Z,95536.16
2022-08-12T18:31:19.667Z,95541.53
2022-08-12T18:34:24.160Z,95534.78
2022-08-12T18:37:42.188Z,95532.81
2022-08-12T18:40:45.797Z,95537.44
2022-08-12T18:43:59.553Z,95546.56
2022-08-12T18:47:02.668Z,95549.34
2022-08-12T18:50:10.937Z,95551.88
2022-08-12T18:53:31.007Z,95556.19
2022-08-12T18:56:38.197Z,95555.47
2022-08-12T19:00:01.517Z,95552.84
2022-08-12T19:03:03.813Z,95549.66
2022-08-12T19:06:06.147Z,95560.28
2022-08-12T19:09:10.014Z,95556.19
2022-08-12T19:12:12.347Z,95559.44
2022-08-12T19:15:22.461Z,95560.19
2022-08-12T19:18:24.855Z,95556.88
2022-08-12T19:21:31.509Z,95557.63
2022-08-12T19:24:34.922Z,95559.91
2022-08-12T19:27:39.049Z,95562.25
2022-08-12T19:30:52.760Z,95565.34
2022-08-12T19:34:25.598Z,95573.84
2022-08-12T19:37:18.487Z,95567.72
2022-08-12T19:40:32.555Z,95571.88
2022-08-12T19:43:59.529Z,95561.81
2022-08-12T19:46:57.603Z,95569.66
2022-08-12T19:50:02.061Z,95567.56
2022-08-12T19:53:04.430Z,95562.69
2022-08-12T19:56:11.488Z,95566.28
2022-08-12T19:59:13.481Z,95556.63
2022-08-12T20:02:20.948Z,95557.50
2022-08-12T20:06:08.528Z,95554.66
2022-08-12T20:08:57.938Z,95554.75
2022-08-12T20:12:13.915Z,95552.81
2022-08-12T20:15:18.217Z,95551.31
2022-08-12T20:18:44.419Z,95548.91
2022-08-12T20:21:42.599Z,95557.22
2022-08-12T20:24:44.575Z,95552.94
2022-08-12T20:28:05.630Z,95554.38
2022-08-12T20:31:07.983Z,95553.63
2022-08-12T20:34:12.354Z,95562.69
2022-08-12T20:37:14.304Z,95561.75
2022-08-12T20:40:17.786Z,95555.91
2022-08-12T20:43:27.989Z,95558.41
2022-08-12T20:46:30.344Z,95558.19
2022-08-12T20:49:33.641Z,95547.25
2022-08-12T20:52:35.722Z,95554.84
2022-08-12T20:55:42.562Z,95550.25
2022-08-12T20:58:46.777Z,95550.81
2022-08-12T21:01:49.037Z,95554.19
2022-08-12T21:04:50.959Z,95553.06
2022-08-12T21:07:52.714Z,95550.09
2022-08-12T21:10:54.508Z,95552.81
2022-08-12T21:13:59.088Z,95547.78
2022-08-12T21:17:01.696Z,95546.72
2022-08-12T21:20:06.109Z,95538.91
2022-08-12T21:23:13.208Z,95535.28
2022-08-12T21:26:16.686Z,95527.81
2022-08-12T21:29:20.034Z,95534.69
2022-08-12T21:32:40.228Z,95532.91
2022-08-12T21:35:43.512Z,95527.53
2022-08-12T21:38:45.215Z,95520.44
2022-08-12T21:41:51.015Z,95520.63
2022-08-12T21:45:45.847Z,95523.31
2022-08-12T21:48:16.428Z,95524.78
2022-08-12T21:51:23.356Z,95530.72
2022-08-12T21:54:25.622Z,95530.28
2022-08-12T21:57:28.989Z,95520.56
2022-08-12T22:00:34.103Z,95526.47
2022-08-12T22:04:04.358Z,95532.97
2022-08-12T22:06:59.318Z,95525.78
2022-08-12T22:10:01.061Z,95532.25
2022-08-12T22:13:04.642Z,95532.78
2022-08-12T22:16:09.277Z,95521.72
2022-08-12T22:19:13.443Z,95530.94
2022-08-12T22:22:15.306Z,95521.66
2022-08-12T22:25:16.956Z,95514.91
2022-08-12T22:28:24.502Z,95523.34
2022-08-12T22:31:28.080Z,95526.78
2022-08-12T22:34:33.392Z,95532.56
2022-08-12T22:37:35.237Z,95531.19
2022-08-12T22:40:45.704Z,95530.50
2022-08-12T22:44:00.406Z,95529.50
2022-08-12T22:47:04.472Z,95527.84
2022-08-12T22:50:09.017Z,95528.19
2022-08-12T22:53:36.189Z,95529.94
2022-08-12T22:56:38.452Z,95525.72
2022-08-12T22:59:55.044Z,95527.13
2022-08-12T23:03:02.701Z,95522.78
2022-08-12T23:06:10.045Z,95519.97
2022-08-12T23:09:12.797Z,95519.22
2022-08-12T23:12:24.957Z,95512.25
2022-08-12T23:15:26.982Z,95507.88
2022-08-12T23:18:33.512Z,95512.19
2022-08-12T23:22:03.642Z,95508.88
2022-08-12T23:24:57.315Z,95511.69
2022-08-12T23:28:02.023Z,95503.16
2022-08-12T23:31:04.134Z,95506.06
2022-08-12T23:34:07.518Z,95501.72
2022-08-12T23:37:11.209Z,95499.00
2022-08-12T23:40:17.810Z,95497.16
2022-08-12T23:43:20.212Z,95499.53
2022-08-12T23:46:26.013Z,95498.38
2022-08-12T23:49:57.183Z,95502.94
2022-08-12T23:52:52.413Z,95503.66
2022-08-12T23:55:54.130Z,95495.81
2022-08-12T23:58:57.613Z,95494.34
